Time;durP1;ratioP1;P1;durP2;ratioP2;P2;SDS_P1;SDS_P2;PMS_P1;PMS_P2;Temp;Humidity;BMP_temperature;BMP_pressure;BME280_temperature;BME280_humidity;BME280_pressure;Samples;Min_cycle;Max_cycle;Signal;HPM_P1;HPM_P2
2023/12/01 00:02:05;;;;;;;42.28;16.33;;;-0.10;99.90;;;;;;4946260;28;20047;-64
2023/12/01 00:04:30;;;;;;;41.00;16.25;;;-0.10;99.90;;;;;;4942285;28;20182;-65
2023/12/01 00:06:56;;;;;;;44.10;15.82;;;-0.20;99.90;;;;;;4942239;28;20051;-65
2023/12/01 00:09:22;;;;;;;45.75;16.30;;;-0.20;99.90;;;;;;4942481;28;20050;-64
2023/12/01 00:11:47;;;;;;;43.15;15.55;;;-0.20;99.90;;;;;;4956208;28;20052;-68
2023/12/01 00:14:13;;;;;;;47.58;16.52;;;-0.20;99.90;;;;;;4939769;28;20122;-69
2023/12/01 00:16:39;;;;;;;46.58;16.73;;;-0.30;99.90;;;;;;4945683;28;20043;-68
2023/12/01 00:19:04;;;;;;;41.10;15.30;;;-0.30;99.90;;;;;;4947584;28;20101;-68
2023/12/01 00:21:30;;;;;;;45.28;17.38;;;-0.20;99.90;;;;;;4960908;28;20121;-68
2023/12/01 00:23:56;;;;;;;42.72;16.10;;;-0.20;99.90;;;;;;4961509;28;20078;-68
2023/12/01 00:26:22;;;;;;;43.83;17.50;;;-0.20;99.90;;;;;;4944563;28;20141;-69
2023/12/01 00:28:47;;;;;;;47.13;18.25;;;-0.20;99.90;;;;;;4962458;28;20086;-69
2023/12/01 00:31:13;;;;;;;43.15;19.45;;;0.00;99.90;;;;;;4943463;28;20043;-69
2023/12/01 00:33:39;;;;;;;46.25;19.90;;;-0.20;99.90;;;;;;4948686;28;20039;-69
2023/12/01 00:36:05;;;;;;;47.17;18.23;;;-0.20;99.90;;;;;;4953949;28;20134;-70
2023/12/01 00:38:31;;;;;;;49.45;20.15;;;-0.20;99.90;;;;;;4952749;28;20054;-69
2023/12/01 00:40:57;;;;;;;43.58;18.20;;;-0.20;99.90;;;;;;4941108;28;20555;-69
2023/12/01 00:43:22;;;;;;;43.47;16.90;;;-0.20;99.90;;;;;;4944653;28;20039;-69
2023/12/01 00:45:48;;;;;;;42.55;16.02;;;-0.20;99.90;;;;;;4943558;28;20117;-69
2023/12/01 00:48:15;;;;;;;39.53;17.20;;;-0.20;99.90;;;;;;4955610;28;20073;-69
2023/12/01 00:50:41;;;;;;;42.50;17.65;;;-0.20;99.90;;;;;;4918675;29;20419;-68
2023/12/01 00:53:07;;;;;;;44.72;18.33;;;-0.20;99.90;;;;;;4947384;28;20057;-69
2023/12/01 00:55:32;;;;;;;38.72;15.93;;;-0.30;99.90;;;;;;4963352;28;20125;-69
2023/12/01 00:57:58;;;;;;;40.47;16.05;;;-0.30;99.90;;;;;;4959704;28;20097;-68
2023/12/01 01:00:24;;;;;;;37.47;14.77;;;-0.30;99.90;;;;;;4947217;28;20130;-69
2023/12/01 01:02:50;;;;;;;34.83;14.50;;;-0.30;99.90;;;;;;4957666;28;20135;-69
2023/12/01 01:05:16;;;;;;;33.88;13.73;;;-0.30;99.90;;;;;;4940826;28;20126;-69
2023/12/01 01:07:43;;;;;;;32.38;13.75;;;-0.40;99.90;;;;;;4957380;28;20098;-65
2023/12/01 01:10:08;;;;;;;32.05;14.40;;;-0.40;99.90;;;;;;4937152;28;20050;-64
2023/12/01 01:12:34;;;;;;;32.83;15.10;;;-0.40;99.90;;;;;;4927350;28;20059;-64
2023/12/01 01:15:03;;;;;;;35.13;14.77;;;-0.40;99.90;;;;;;4941397;28;20514;-65
2023/12/01 01:17:32;;;;;;;33.15;14.02;;;-0.40;99.90;;;;;;4955282;28;20671;-65
2023/12/01 01:19:59;;;;;;;38.00;15.07;;;-0.50;99.90;;;;;;4962702;28;20099;-65
2023/12/01 01:22:25;;;;;;;35.33;16.00;;;-0.50;99.90;;;;;;4962238;28;20757;-64
2023/12/01 01:24:52;;;;;;;37.10;16.48;;;0.10;99.90;;;;;;4963492;28;20081;-65
2023/12/01 01:27:17;;;;;;;36.25;15.50;;;-0.50;99.90;;;;;;4944342;28;20047;-69
2023/12/01 01:29:44;;;;;;;34.35;15.98;;;-0.50;99.90;;;;;;4950700;28;20042;-64
2023/12/01 01:32:11;;;;;;;39.90;17.08;;;-0.50;99.90;;;;;;4948116;28;20042;-68
2023/12/01 01:34:38;;;;;;;39.30;16.88;;;-0.50;99.90;;;;;;4956676;28;20772;-69
2023/12/01 01:37:04;;;;;;;38.85;17.23;;;-0.60;99.90;;;;;;4966627;28;20655;-69
2023/12/01 01:39:30;;;;;;;35.10;16.33;;;-0.60;99.90;;;;;;4956958;28;20039;-69
2023/12/01 01:41:56;;;;;;;38.13;16.75;;;-0.60;99.90;;;;;;4957615;28;20102;-65
2023/12/01 01:44:23;;;;;;;35.95;15.73;;;-0.60;99.90;;;;;;4951377;28;20057;-65
2023/12/01 01:46:50;;;;;;;38.42;18.38;;;-0.60;99.90;;;;;;4931353;29;20060;-65
2023/12/01 01:49:25;;;;;;;42.50;18.48;;;-0.60;99.90;;;;;;4919136;29;20134;-64
2023/12/01 01:51:53;;;;;;;34.67;15.82;;;-0.70;99.90;;;;;;4960517;28;20621;-65
2023/12/01 01:54:23;;;;;;;35.20;16.63;;;-0.10;99.90;;;;;;4934115;28;20472;-65
2023/12/01 01:56:49;;;;;;;34.35;16.00;;;-0.80;99.90;;;;;;4963118;28;20078;-65
2023/12/01 01:59:19;;;;;;;34.03;15.88;;;-0.80;99.90;;;;;;4932795;28;20062;-64
2023/12/01 02:01:48;;;;;;;33.97;16.45;;;-0.70;99.90;;;;;;4946573;28;20161;-64
2023/12/01 02:04:14;;;;;;;33.40;16.25;;;-0.80;99.90;;;;;;4947296;28;20098;-65
2023/12/01 02:06:40;;;;;;;36.72;16.58;;;-0.90;99.90;;;;;;4945493;28;20055;-64
2023/12/01 02:09:06;;;;;;;37.88;17.13;;;-0.90;99.90;;;;;;4948497;28;20109;-64
2023/12/01 02:11:33;;;;;;;39.45;17.65;;;-0.90;99.90;;;;;;4950679;28;20095;-65
2023/12/01 02:14:01;;;;;;;37.72;16.35;;;-0.90;99.90;;;;;;4950444;28;20070;-65
2023/12/01 02:16:28;;;;;;;37.88;16.98;;;-0.90;99.90;;;;;;4952095;28;20051;-64
2023/12/01 02:18:54;;;;;;;39.15;17.60;;;-0.90;99.90;;;;;;4964367;28;20059;-65
2023/12/01 02:21:27;;;;;;;35.63;16.67;;;-0.70;99.90;;;;;;4935236;28;20527;-64
2023/12/01 02:23:54;;;;;;;34.20;16.25;;;-0.90;99.90;;;;;;4964228;28;20050;-65
2023/12/01 02:26:23;;;;;;;38.40;17.25;;;-0.90;99.90;;;;;;4948867;28;20039;-64
2023/12/01 02:28:49;;;;;;;41.75;17.98;;;-0.90;99.90;;;;;;4980538;28;20181;-64
2023/12/01 02:31:15;;;;;;;39.97;17.20;;;-0.90;99.90;;;;;;4956770;28;20058;-64
2023/12/01 02:33:41;;;;;;;37.47;16.02;;;-0.90;99.90;;;;;;4970398;28;20049;-64
2023/12/01 02:36:08;;;;;;;41.85;18.58;;;-0.60;99.90;;;;;;4962758;28;20063;-64
2023/12/01 02:38:35;;;;;;;38.78;16.88;;;-0.90;99.90;;;;;;4969869;28;20049;-64
2023/12/01 02:41:02;;;;;;;37.70;17.45;;;-1.10;99.90;;;;;;4968345;28;20106;-64
2023/12/01 02:43:28;;;;;;;38.78;17.33;;;-1.00;99.90;;;;;;4954392;28;20048;-63
2023/12/01 02:45:55;;;;;;;42.20;18.33;;;-1.00;99.90;;;;;;4954071;28;20412;-64
2023/12/01 02:48:21;;;;;;;40.92;16.67;;;-1.00;99.90;;;;;;4941930;28;20542;-64
2023/12/01 02:50:47;;;;;;;44.72;18.50;;;-1.00;99.90;;;;;;4946097;28;20054;-64
2023/12/01 02:53:15;;;;;;;42.45;17.38;;;-1.00;99.90;;;;;;4955582;28;20500;-64
2023/12/01 02:55:42;;;;;;;44.65;18.90;;;-0.70;99.90;;;;;;4936069;28;20691;-64
2023/12/01 02:58:08;;;;;;;41.40;17.83;;;-1.10;99.90;;;;;;4967490;28;20046;-64
2023/12/01 03:00:34;;;;;;;45.35;17.80;;;-1.10;99.90;;;;;;4959022;28;20113;-64
2023/12/01 03:02:59;;;;;;;44.25;17.88;;;0.20;99.90;;;;;;4956324;28;20384;-64
2023/12/01 03:05:25;;;;;;;46.90;18.85;;;-1.20;99.90;;;;;;4961494;28;20133;-66
2023/12/01 03:07:51;;;;;;;44.30;18.38;;;-1.20;99.90;;;;;;4962157;28;20039;-65
2023/12/01 03:10:17;;;;;;;46.08;18.05;;;-1.20;99.90;;;;;;4966824;28;20043;-63
2023/12/01 03:12:44;;;;;;;44.78;18.15;;;-1.20;99.90;;;;;;4962344;28;20125;-64
2023/12/01 03:15:14;;;;;;;50.13;18.02;;;-1.20;99.90;;;;;;4953975;28;20075;-64
2023/12/01 03:17:41;;;;;;;42.77;16.97;;;-1.30;99.90;;;;;;4949273;28;20046;-64
2023/12/01 03:20:08;;;;;;;48.25;18.92;;;-1.20;99.90;;;;;;4969729;28;20078;-63
2023/12/01 03:22:34;;;;;;;48.05;19.48;;;-1.30;99.90;;;;;;4955450;28;20504;-63
2023/12/01 03:25:01;;;;;;;46.30;18.42;;;-1.30;99.90;;;;;;4947479;28;20121;-67
2023/12/01 03:27:26;;;;;;;47.10;18.85;;;-1.40;99.90;;;;;;4965961;28;20656;-64
2023/12/01 03:29:52;;;;;;;47.00;18.10;;;-1.40;99.90;;;;;;4941277;29;20059;-63
2023/12/01 03:32:21;;;;;;;44.90;16.92;;;-1.40;99.90;;;;;;4963412;28;20119;-63
2023/12/01 03:34:46;;;;;;;44.75;17.65;;;-1.40;99.90;;;;;;4961288;28;20866;-63
2023/12/01 03:37:12;;;;;;;48.95;18.35;;;-1.50;99.90;;;;;;4967882;28;20070;-64
2023/12/01 03:39:38;;;;;;;45.30;17.55;;;-1.20;99.90;;;;;;4933850;28;20492;-64
2023/12/01 03:42:04;;;;;;;46.42;17.85;;;-1.40;99.90;;;;;;4969064;28;20487;-72
2023/12/01 03:44:31;;;;;;;44.95;17.20;;;-1.50;99.90;;;;;;4967982;28;20054;-65
2023/12/01 03:46:58;;;;;;;49.38;17.65;;;-1.40;99.90;;;;;;4935855;28;20295;-64
2023/12/01 03:49:24;;;;;;;47.85;18.70;;;-1.50;99.90;;;;;;4968314;28;20540;-64
2023/12/01 03:51:52;;;;;;;47.75;18.20;;;-1.40;99.90;;;;;;4968459;28;20492;-75
2023/12/01 03:54:18;;;;;;;46.70;18.58;;;-0.80;99.90;;;;;;4951756;28;20121;-64
2023/12/01 03:56:44;;;;;;;46.83;18.92;;;-1.40;99.90;;;;;;4957659;28;20089;-64
2023/12/01 03:59:10;;;;;;;51.13;18.02;;;-1.40;99.90;;;;;;4967077;28;20098;-68
2023/12/01 04:01:39;;;;;;;47.20;18.00;;;-0.80;99.90;;;;;;4970610;28;20050;-68
2023/12/01 04:04:05;;;;;;;46.78;18.42;;;-1.00;99.90;;;;;;4972503;28;20097;-68
2023/12/01 04:06:34;;;;;;;45.13;17.15;;;-1.50;99.90;;;;;;4966334;28;20049;-68
2023/12/01 04:09:05;;;;;;;49.13;18.67;;;-1.50;99.90;;;;;;4966716;28;20479;-68
2023/12/01 04:11:32;;;;;;;46.00;18.50;;;-1.50;99.90;;;;;;4965691;28;20062;-68
2023/12/01 04:13:58;;;;;;;52.17;19.00;;;-1.50;99.90;;;;;;4952149;28;20475;-68
2023/12/01 04:16:24;;;;;;;46.42;18.58;;;-1.50;99.90;;;;;;4968093;28;20126;-68
2023/12/01 04:18:53;;;;;;;43.85;16.73;;;-1.50;99.90;;;;;;4968105;28;20035;-67
2023/12/01 04:21:19;;;;;;;52.30;19.27;;;-1.60;99.90;;;;;;4951131;28;20792;-68
2023/12/01 04:23:45;;;;;;;45.38;18.13;;;-1.50;99.90;;;;;;4947672;29;20058;-68
2023/12/01 04:26:12;;;;;;;52.70;18.60;;;-1.50;99.90;;;;;;4962579;28;20047;-71
2023/12/01 04:28:40;;;;;;;44.58;16.77;;;-0.50;99.90;;;;;;4965021;28;20050;-68
2023/12/01 04:31:06;;;;;;;49.53;18.23;;;-1.50;99.90;;;;;;4951457;28;20047;-68
2023/12/01 04:33:32;;;;;;;47.78;17.67;;;-1.60;99.90;;;;;;4963130;28;20039;-68
2023/12/01 04:35:58;;;;;;;49.95;17.38;;;-1.60;99.90;;;;;;4947139;28;20439;-68
2023/12/01 04:38:23;;;;;;;53.83;18.30;;;-1.60;99.90;;;;;;4950289;28;20504;-68
2023/12/01 04:40:50;;;;;;;47.45;18.05;;;-1.20;99.90;;;;;;4964950;28;20462;-68
2023/12/01 04:43:19;;;;;;;49.95;18.02;;;-1.60;99.90;;;;;;4951014;28;20057;-68
2023/12/01 04:45:45;;;;;;;50.60;17.88;;;-1.60;99.90;;;;;;4966484;28;20046;-68
2023/12/01 04:48:10;;;;;;;45.25;17.60;;;-1.70;99.90;;;;;;4966915;28;20118;-67
2023/12/01 04:50:45;;;;;;;45.38;16.73;;;-1.70;99.90;;;;;;4966078;28;20057;-68
2023/12/01 04:53:12;;;;;;;43.15;17.70;;;-1.70;99.90;;;;;;4967489;28;20595;-68
2023/12/01 04:55:38;;;;;;;43.90;16.65;;;-1.70;99.90;;;;;;4968646;28;20042;-68
2023/12/01 04:58:04;;;;;;;46.03;18.23;;;-1.70;99.90;;;;;;4965041;28;20065;-68
2023/12/01 05:00:30;;;;;;;47.20;16.98;;;-1.70;99.90;;;;;;4951018;28;20062;-68
2023/12/01 05:03:00;;;;;;;46.65;17.48;;;-1.80;99.90;;;;;;4966873;28;20077;-64
2023/12/01 05:05:28;;;;;;;32.75;13.65;;;-1.80;99.90;;;;;;4948825;28;20672;-64
2023/12/01 05:07:57;;;;;;;43.00;17.25;;;-1.80;99.90;;;;;;4966991;28;20047;-64
2023/12/01 05:10:30;;;;;;;44.83;16.85;;;-1.80;99.90;;;;;;4967224;28;20098;-64
2023/12/01 05:13:01;;;;;;;41.30;17.25;;;-1.80;99.90;;;;;;4967764;28;20043;-63
2023/12/01 05:15:28;;;;;;;45.05;17.88;;;-1.30;99.90;;;;;;4967839;28;20039;-63
2023/12/01 05:17:55;;;;;;;47.90;17.30;;;-1.90;99.90;;;;;;4965231;28;20086;-63
2023/12/01 05:20:25;;;;;;;47.60;18.08;;;-1.90;99.90;;;;;;4961542;28;20054;-63
2023/12/01 05:22:52;;;;;;;44.13;16.85;;;-1.90;99.90;;;;;;4943945;28;20050;-63
2023/12/01 05:25:19;;;;;;;44.72;17.15;;;-1.90;99.90;;;;;;4961853;28;20042;-63
2023/12/01 05:27:50;;;;;;;44.92;17.30;;;-2.00;99.90;;;;;;4966982;28;20055;-63
2023/12/01 05:30:23;;;;;;;42.70;16.88;;;-2.00;99.90;;;;;;4966539;28;20512;-63
2023/12/01 05:32:54;;;;;;;45.13;16.65;;;-2.00;99.90;;;;;;4949823;28;20050;-63
2023/12/01 05:35:21;;;;;;;42.00;16.98;;;-2.00;99.90;;;;;;4966298;28;20130;-63
2023/12/01 05:37:52;;;;;;;44.60;15.88;;;-2.10;99.90;;;;;;4950207;28;20050;-63
2023/12/01 05:40:24;;;;;;;46.40;16.15;;;-2.10;99.90;;;;;;4949369;28;20512;-63
2023/12/01 05:42:52;;;;;;;41.55;15.68;;;-2.10;99.90;;;;;;4949874;28;20086;-63
2023/12/01 05:45:20;;;;;;;46.55;16.52;;;-2.20;99.90;;;;;;4967379;28;20043;-63
2023/12/01 05:47:52;;;;;;;41.85;16.48;;;-2.20;99.90;;;;;;4961191;28;20104;-64
2023/12/01 05:50:22;;;;;;;46.40;16.73;;;-2.30;99.90;;;;;;4967750;28;20047;-66
2023/12/01 05:52:50;;;;;;;42.13;16.20;;;-2.30;99.90;;;;;;4950220;28;20637;-67
2023/12/01 05:55:18;;;;;;;44.95;15.45;;;-2.30;99.90;;;;;;4933553;28;20113;-67
2023/12/01 05:57:53;;;;;;;43.10;16.27;;;-2.30;99.90;;;;;;4951319;28;20051;-67
2023/12/01 06:00:21;;;;;;;48.58;16.45;;;-2.40;99.90;;;;;;4949981;28;20831;-67
2023/12/01 06:02:48;;;;;;;42.90;16.73;;;-2.40;99.90;;;;;;4948596;28;20473;-74
2023/12/01 06:05:15;;;;;;;37.10;14.63;;;-2.40;99.90;;;;;;4961138;28;20047;-67
2023/12/01 06:07:44;;;;;;;46.67;16.02;;;-2.40;99.90;;;;;;4950429;28;20090;-67
2023/12/01 06:10:13;;;;;;;44.42;16.73;;;-2.40;99.90;;;;;;4952246;28;20063;-67
2023/12/01 06:12:40;;;;;;;42.97;16.13;;;-2.30;99.90;;;;;;4956595;28;20047;-67
2023/12/01 06:15:07;;;;;;;44.65;15.82;;;-2.40;99.90;;;;;;4933578;28;20043;-67
2023/12/01 06:17:33;;;;;;;45.53;15.93;;;-2.40;99.90;;;;;;4960837;28;20053;-67
2023/12/01 06:19:59;;;;;;;42.13;16.45;;;-2.50;99.90;;;;;;4964618;28;20043;-67
2023/12/01 06:22:25;;;;;;;40.00;14.82;;;-2.50;99.90;;;;;;4962471;28;20527;-67
2023/12/01 06:24:51;;;;;;;47.13;16.23;;;-2.50;99.90;;;;;;4933246;28;20523;-67
2023/12/01 06:27:16;;;;;;;38.03;15.18;;;-2.50;99.90;;;;;;4965516;28;20117;-67
2023/12/01 06:29:44;;;;;;;42.55;15.93;;;-2.50;99.90;;;;;;4946409;28;20120;-66
2023/12/01 06:32:10;;;;;;;43.20;16.38;;;-2.50;99.90;;;;;;4965194;28;20051;-63
2023/12/01 06:34:35;;;;;;;41.92;14.95;;;-2.60;99.90;;;;;;4964000;28;20127;-62
2023/12/01 06:37:01;;;;;;;40.20;14.30;;;-2.60;99.90;;;;;;4960733;28;20119;-63
2023/12/01 06:39:27;;;;;;;38.45;15.82;;;-2.60;99.90;;;;;;4926242;28;20039;-62
2023/12/01 06:41:54;;;;;;;39.83;15.13;;;-2.60;99.90;;;;;;4941718;28;20061;-63
2023/12/01 06:44:20;;;;;;;38.88;15.98;;;-2.60;99.90;;;;;;4920936;28;20058;-63
2023/12/01 06:46:48;;;;;;;41.80;15.65;;;-2.70;99.90;;;;;;4940700;28;20578;-62
2023/12/01 06:49:14;;;;;;;38.92;16.70;;;-2.70;99.90;;;;;;4957213;28;20137;-63
2023/12/01 06:51:40;;;;;;;41.05;14.85;;;-2.70;99.90;;;;;;4947821;28;20039;-63
2023/12/01 06:54:09;;;;;;;41.10;15.05;;;-2.70;99.90;;;;;;4951631;28;20074;-63
2023/12/01 06:56:39;;;;;;;42.92;15.40;;;-2.70;99.90;;;;;;4929820;28;20086;-62
2023/12/01 06:59:08;;;;;;;39.75;15.35;;;-2.80;99.90;;;;;;4949499;28;20495;-64
2023/12/01 07:01:35;;;;;;;41.83;14.75;;;-2.70;99.90;;;;;;4959425;28;20046;-62
2023/12/01 07:04:07;;;;;;;40.10;14.93;;;-2.80;99.90;;;;;;4945873;28;20421;-63
2023/12/01 07:06:35;;;;;;;38.35;14.95;;;-2.80;99.90;;;;;;4938595;28;20043;-62
2023/12/01 07:09:01;;;;;;;42.90;15.82;;;-2.80;99.90;;;;;;4961596;28;20495;-62
2023/12/01 07:11:27;;;;;;;39.03;15.05;;;-2.80;99.90;;;;;;4930219;28;20481;-63
2023/12/01 07:13:54;;;;;;;41.30;15.80;;;-2.80;99.90;;;;;;4941306;28;20083;-63
2023/12/01 07:16:20;;;;;;;39.30;14.88;;;-2.80;99.90;;;;;;4962542;28;20050;-63
2023/12/01 07:18:46;;;;;;;35.03;14.77;;;-2.90;99.90;;;;;;4956902;28;20746;-63
2023/12/01 07:21:11;;;;;;;38.28;14.40;;;-2.90;99.90;;;;;;4968915;28;20133;-63
2023/12/01 07:23:40;;;;;;;35.03;12.93;;;-2.90;99.90;;;;;;4946490;28;20589;-62
2023/12/01 07:26:06;;;;;;;35.10;14.15;;;-2.90;99.90;;;;;;4948166;28;20400;-63
2023/12/01 07:28:32;;;;;;;39.58;15.15;;;-2.90;99.90;;;;;;4937115;28;20046;-63
2023/12/01 07:30:59;;;;;;;38.10;15.23;;;-2.90;99.90;;;;;;4942825;28;20464;-62
2023/12/01 07:33:25;;;;;;;41.38;16.23;;;-2.90;99.90;;;;;;4967704;28;20050;-62
2023/12/01 07:35:51;;;;;;;42.58;15.77;;;-3.00;99.90;;;;;;4951755;28;20117;-65
2023/12/01 07:38:17;;;;;;;44.35;16.23;;;-3.00;99.90;;;;;;4958378;28;20046;-62
2023/12/01 07:40:44;;;;;;;42.13;16.08;;;-3.00;99.90;;;;;;4957100;28;20047;-63
2023/12/01 07:43:11;;;;;;;40.20;15.38;;;-2.80;99.90;;;;;;4944935;28;20047;-62
2023/12/01 07:45:36;;;;;;;40.45;15.27;;;-3.00;99.90;;;;;;4953588;28;20043;-63
2023/12/01 07:48:02;;;;;;;44.28;15.50;;;-3.10;99.90;;;;;;4966219;28;20396;-62
2023/12/01 07:50:28;;;;;;;39.42;14.50;;;-3.00;99.90;;;;;;4936060;28;20050;-62
2023/12/01 07:52:54;;;;;;;39.35;15.20;;;-3.10;99.90;;;;;;4948599;28;20055;-63
2023/12/01 07:55:21;;;;;;;42.47;14.80;;;-2.70;99.90;;;;;;4967585;28;20046;-63
2023/12/01 07:57:46;;;;;;;39.58;15.55;;;-3.00;99.90;;;;;;4970805;28;20158;-62
2023/12/01 08:00:16;;;;;;;39.63;15.70;;;-3.10;99.90;;;;;;4968977;28;20125;-62
2023/12/01 08:02:46;;;;;;;44.00;15.95;;;-3.10;99.90;;;;;;4948479;28;20587;-62
2023/12/01 08:05:14;;;;;;;40.88;15.85;;;-3.10;99.90;;;;;;4950678;28;20058;-63
2023/12/01 08:07:41;;;;;;;40.17;15.43;;;-3.10;99.90;;;;;;4946035;28;20511;-63
2023/12/01 08:10:08;;;;;;;43.55;16.80;;;-3.10;99.90;;;;;;4949182;28;20077;-63
2023/12/01 08:12:34;;;;;;;42.22;16.25;;;-3.10;99.90;;;;;;4968148;28;20038;-63
2023/12/01 08:15:00;;;;;;;44.13;16.00;;;-3.10;99.90;;;;;;4966980;28;20047;-63
2023/12/01 08:17:26;;;;;;;41.45;15.43;;;-3.40;99.90;;;;;;4947564;28;20046;-63
2023/12/01 08:19:51;;;;;;;42.90;15.07;;;-4.20;99.90;;;;;;4929121;28;20057;-62
2023/12/01 08:22:17;;;;;;;36.83;13.93;;;-3.10;99.90;;;;;;4947770;28;20071;-63
2023/12/01 08:24:45;;;;;;;40.08;13.98;;;-3.10;99.90;;;;;;4966991;28;20046;-63
2023/12/01 08:27:11;;;;;;;38.80;14.70;;;-3.10;99.90;;;;;;4960803;28;20057;-64
2023/12/01 08:29:37;;;;;;;37.70;14.57;;;-3.10;99.90;;;;;;4966298;28;20038;-62
2023/12/01 08:32:03;;;;;;;41.85;15.60;;;-3.10;99.90;;;;;;4946132;28;20055;-63
2023/12/01 08:34:29;;;;;;;36.33;16.27;;;-3.10;99.90;;;;;;4967216;28;20054;-63
2023/12/01 08:36:55;;;;;;;37.67;15.23;;;-3.00;99.90;;;;;;4948580;28;20050;-62
2023/12/01 08:39:20;;;;;;;36.67;14.75;;;-3.10;99.90;;;;;;4964711;28;20053;-63
2023/12/01 08:41:47;;;;;;;35.88;14.55;;;-3.10;99.90;;;;;;4964789;28;20039;-63
2023/12/01 08:44:13;;;;;;;38.47;14.82;;;-3.10;99.90;;;;;;4945360;28;20043;-63
2023/12/01 08:46:38;;;;;;;35.65;14.88;;;-3.10;99.90;;;;;;4961091;28;20518;-63
2023/12/01 08:49:04;;;;;;;32.25;13.95;;;-2.90;99.90;;;;;;4959410;28;20101;-63
2023/12/01 08:51:30;;;;;;;39.22;15.75;;;-3.00;99.90;;;;;;4973054;28;20491;-63
2023/12/01 08:53:55;;;;;;;38.67;15.02;;;-3.00;99.90;;;;;;4932801;28;20051;-63
2023/12/01 08:56:21;;;;;;;42.60;15.52;;;-3.00;99.90;;;;;;4962892;28;20047;-63
2023/12/01 08:58:47;;;;;;;38.45;14.65;;;-3.00;99.90;;;;;;4947144;28;20063;-63
2023/12/01 09:01:13;;;;;;;36.80;14.90;;;-3.00;99.90;;;;;;4924428;28;20047;-63
2023/12/01 09:03:38;;;;;;;41.22;15.95;;;-3.00;99.90;;;;;;4952403;28;20047;-63
2023/12/01 09:06:04;;;;;;;41.03;15.90;;;-2.90;99.90;;;;;;4961985;28;20073;-63
2023/12/01 09:08:30;;;;;;;37.08;15.30;;;-2.90;99.90;;;;;;4944965;28;20058;-63
2023/12/01 09:10:56;;;;;;;38.80;14.13;;;-2.90;99.90;;;;;;4945551;28;20054;-63
2023/12/01 09:13:21;;;;;;;34.22;13.85;;;-2.90;99.90;;;;;;4964365;28;20038;-63
2023/12/01 09:15:47;;;;;;;40.15;16.25;;;-2.30;99.90;;;;;;4960404;28;20066;-63
2023/12/01 09:18:14;;;;;;;36.28;14.75;;;-2.80;99.90;;;;;;4963910;28;20043;-63
2023/12/01 09:20:40;;;;;;;35.65;14.75;;;-2.80;99.90;;;;;;4960967;28;20042;-63
2023/12/01 09:23:06;;;;;;;37.97;16.50;;;-2.80;99.90;;;;;;4962884;28;20049;-63
2023/12/01 09:25:31;;;;;;;39.17;15.73;;;-2.50;99.90;;;;;;4962919;28;20077;-63
2023/12/01 09:27:58;;;;;;;39.13;16.83;;;-2.80;99.90;;;;;;4964393;28;20113;-63
2023/12/01 09:30:23;;;;;;;39.55;17.23;;;-2.70;99.90;;;;;;4955833;28;20035;-67
2023/12/01 09:32:49;;;;;;;40.38;15.57;;;-2.70;99.90;;;;;;4963750;28;20050;-67
2023/12/01 09:35:15;;;;;;;38.63;16.42;;;-2.70;99.90;;;;;;4965751;28;20077;-63
2023/12/01 09:37:42;;;;;;;38.80;16.63;;;-2.70;99.90;;;;;;4957075;28;20480;-63
2023/12/01 09:40:08;;;;;;;38.75;15.68;;;-2.70;99.90;;;;;;4943463;28;20524;-63
2023/12/01 09:42:37;;;;;;;38.88;15.68;;;-2.70;99.90;;;;;;4947571;28;20039;-63
2023/12/01 09:45:04;;;;;;;36.85;14.98;;;-2.60;99.90;;;;;;4936268;28;20122;-63
2023/12/01 09:47:32;;;;;;;36.25;15.43;;;-2.60;99.90;;;;;;4965984;28;20047;-63
2023/12/01 09:49:58;;;;;;;35.92;15.40;;;-2.40;99.90;;;;;;4948112;28;20047;-63
2023/12/01 09:52:24;;;;;;;34.42;14.18;;;-2.60;99.90;;;;;;4948326;28;20105;-63
2023/12/01 09:54:49;;;;;;;35.33;15.13;;;-2.50;99.90;;;;;;4949246;28;20054;-63
2023/12/01 09:57:16;;;;;;;34.97;14.27;;;-2.50;99.90;;;;;;4949348;28;20050;-63
2023/12/01 09:59:44;;;;;;;33.65;14.20;;;-2.20;99.90;;;;;;4965620;28;20047;-63
2023/12/01 10:02:09;;;;;;;37.97;14.77;;;-2.50;99.90;;;;;;4941553;28;20425;-63
2023/12/01 10:04:35;;;;;;;32.38;14.82;;;-2.40;99.90;;;;;;4966697;28;20046;-63
2023/12/01 10:07:03;;;;;;;32.83;13.80;;;-2.40;99.90;;;;;;4960696;28;20518;-63
2023/12/01 10:09:33;;;;;;;31.25;13.27;;;-2.40;99.90;;;;;;4946536;28;20081;-64
2023/12/01 10:12:12;;;;;;;29.08;14.43;;;-2.40;99.90;;;;;;4951266;28;20137;-63
2023/12/01 10:14:42;;;;;;;32.17;13.73;;;-2.30;99.90;;;;;;4964834;28;20042;-63
2023/12/01 10:17:10;;;;;;;30.98;14.25;;;-2.40;99.90;;;;;;4962577;28;20185;-63
2023/12/01 10:19:47;;;;;;;27.35;12.38;;;-2.40;99.90;;;;;;4932843;28;20061;-63
2023/12/01 10:22:15;;;;;;;29.73;13.40;;;-2.40;99.90;;;;;;4962562;28;20046;-63
2023/12/01 10:24:53;;;;;;;30.95;13.50;;;-2.30;99.90;;;;;;4965826;28;20038;-63
2023/12/01 10:27:19;;;;;;;29.55;13.75;;;-2.30;99.90;;;;;;4965366;28;20059;-63
2023/12/01 10:29:47;;;;;;;31.02;12.95;;;-1.50;99.90;;;;;;4941026;28;20047;-63
2023/12/01 10:32:14;;;;;;;30.17;13.02;;;-2.30;99.90;;;;;;4950613;28;20050;-63
2023/12/01 10:34:48;;;;;;;31.25;13.65;;;-2.30;99.90;;;;;;4944337;28;20442;-63
2023/12/01 10:37:15;;;;;;;29.60;13.20;;;-2.30;99.90;;;;;;4955771;28;20046;-63
2023/12/01 10:39:43;;;;;;;30.27;13.65;;;-2.30;99.90;;;;;;4949780;28;20878;-68
2023/12/01 10:42:10;;;;;;;34.30;14.32;;;-2.20;99.90;;;;;;4954471;28;20062;-63
2023/12/01 10:44:36;;;;;;;28.48;13.70;;;-2.20;99.90;;;;;;4964159;28;20134;-63
2023/12/01 10:47:03;;;;;;;31.33;14.27;;;-2.20;99.90;;;;;;4932338;28;20516;-63
2023/12/01 10:49:30;;;;;;;30.67;13.57;;;-2.10;99.90;;;;;;4959795;28;20051;-63
2023/12/01 10:51:57;;;;;;;31.98;14.23;;;-2.10;99.90;;;;;;4953897;28;20061;-63
2023/12/01 10:54:25;;;;;;;32.15;14.02;;;-2.10;99.90;;;;;;4958269;28;20043;-63
2023/12/01 10:56:58;;;;;;;28.98;13.32;;;-2.10;99.90;;;;;;4968846;28;20059;-63
2023/12/01 10:59:28;;;;;;;33.05;14.07;;;-2.00;99.90;;;;;;4959248;28;20055;-63
2023/12/01 11:01:56;;;;;;;32.50;13.73;;;-2.00;99.90;;;;;;4961429;28;20163;-63
2023/12/01 11:04:27;;;;;;;32.25;14.55;;;-2.00;99.90;;;;;;4933775;28;20113;-63
2023/12/01 11:07:20;;;;;;;29.50;13.55;;;-2.00;99.90;;;;;;4961982;28;20054;-63
2023/12/01 11:10:19;;;;;;;25.52;11.63;;;-1.90;99.90;;;;;;4939054;28;20053;-63
2023/12/01 11:13:16;;;;;;;29.75;13.70;;;-1.90;99.90;;;;;;4936302;28;20063;-63
2023/12/01 11:15:43;;;;;;;32.00;14.32;;;-1.90;99.90;;;;;;4962920;28;20168;-63
2023/12/01 11:18:10;;;;;;;31.05;13.38;;;-1.90;99.90;;;;;;4961038;28;20415;-63
2023/12/01 11:20:41;;;;;;;30.40;14.23;;;-1.80;99.90;;;;;;4960026;28;20566;-63
2023/12/01 11:23:10;;;;;;;30.23;13.80;;;-1.80;99.90;;;;;;4959408;28;20639;-64
2023/12/01 11:25:48;;;;;;;31.65;13.88;;;-1.80;99.90;;;;;;4959130;28;20047;-63
2023/12/01 11:28:45;;;;;;;31.17;14.18;;;-1.80;99.90;;;;;;4944825;28;20041;-64
2023/12/01 11:34:00;;;;;;;31.05;13.05;;;-1.70;99.90;;;;;;4964606;28;20090;-64
2023/12/01 11:36:34;;;;;;;25.88;11.77;;;-1.70;99.90;;;;;;4952030;28;20038;-63
2023/12/01 11:39:29;;;;;;;32.05;14.30;;;-1.70;99.90;;;;;;4960089;28;20058;-64
2023/12/01 11:41:57;;;;;;;28.42;13.80;;;-1.70;99.90;;;;;;4959660;28;20058;-63
2023/12/01 11:44:40;;;;;;;32.05;15.38;;;-1.60;99.90;;;;;;4965472;28;20109;-63
2023/12/01 11:47:12;;;;;;;29.55;14.32;;;-1.60;99.90;;;;;;4961565;28;20038;-63
2023/12/01 11:49:38;;;;;;;31.50;14.30;;;-1.60;99.90;;;;;;4941494;28;20059;-63
2023/12/01 11:52:18;;;;;;;30.63;13.23;;;-1.60;99.90;;;;;;4960898;28;20472;-63
2023/12/01 11:54:44;;;;;;;30.92;14.43;;;-1.60;99.90;;;;;;4962761;28;20415;-63
2023/12/01 11:57:12;;;;;;;31.42;12.93;;;-1.60;99.90;;;;;;4944070;28;20051;-63
2023/12/01 11:59:38;;;;;;;31.35;15.07;;;-1.60;99.90;;;;;;4964909;28;20054;-64
2023/12/01 12:02:04;;;;;;;30.33;14.35;;;-1.50;99.90;;;;;;4950075;28;20390;-64
2023/12/01 12:04:32;;;;;;;32.70;15.07;;;-1.50;99.90;;;;;;4946443;28;22186;-63
2023/12/01 12:07:00;;;;;;;33.28;15.70;;;-1.50;99.90;;;;;;4964425;28;20059;-63
2023/12/01 12:09:28;;;;;;;30.20;14.65;;;-1.50;99.90;;;;;;4948574;28;20054;-64
2023/12/01 12:11:55;;;;;;;31.15;14.00;;;-1.50;99.90;;;;;;4950572;28;21464;-63
2023/12/01 12:14:24;;;;;;;31.98;14.45;;;-1.50;99.90;;;;;;4945506;28;20076;-63
2023/12/01 12:16:51;;;;;;;28.75;14.20;;;-1.50;99.90;;;;;;4957610;28;20503;-63
2023/12/01 12:19:21;;;;;;;30.48;14.40;;;-1.40;99.90;;;;;;4950043;28;20050;-63
2023/12/01 12:21:48;;;;;;;32.88;14.23;;;-1.50;99.90;;;;;;4965631;28;20059;-63
2023/12/01 12:24:15;;;;;;;31.17;14.38;;;-1.30;99.90;;;;;;4963402;28;20046;-64
2023/12/01 12:26:41;;;;;;;29.20;14.20;;;-1.40;99.90;;;;;;4944180;28;20050;-63
2023/12/01 12:29:08;;;;;;;31.20;14.32;;;-1.40;99.90;;;;;;4958775;28;20050;-64
2023/12/01 12:31:38;;;;;;;33.38;14.32;;;-0.80;99.90;;;;;;4949787;28;20062;-63
2023/12/01 12:34:10;;;;;;;33.22;13.98;;;-1.40;99.90;;;;;;4963449;28;20046;-63